Airfield :
LOGIN :

Register | Disclaimer

   EN    FR    IT 

 










Legend :    VFR   Marginal VFR   IFR   Intensive IFR   Very Intensive IFR
Visi :
Ceiling :
>= 8 km
>= 3000ft
5 to 8 km
1000 to 3000 ft
1500m to 5 km
500 to 1000 ft
800 to 1500m
200 to 500 ft
< 800m
< 200 ft
Symbols :   Thunderstorms  Fog  Heavy snow  Heavy precipitations  Wind > 20 kt
SIGMETs :     Misc.  Thunderstorms  Icing  Turbulence  Mountain Waves  Volcanic Ashes






- Airport Elevation : 256 ft
- IATA code : CFR


LFRK - Caen

CURRENT METAR :
  • 010630Z AUTO 21007KT 9999 BKN019 OVC036 14/13 Q1012 TEMPO BKN013

EXPIRED METARs :
  • 010600Z AUTO 23006KT 9999 OVC037 13/13 Q1012 TEMPO BKN013
  • 010530Z AUTO 21006KT 9999 BKN043 12/12 Q1012 TEMPO BKN013
  • 010500Z AUTO 22007KT CAVOK 11/10 Q1012
  • 010430Z AUTO 21008KT CAVOK 11/11 Q1012
  • 010400Z AUTO 22007KT CAVOK 11/10 Q1012

TAF TAF LFRK
Valid from the 01 at 06:00 until the 01 at 15:00 UTC


010500Z 0106/0115 22008KT CAVOK
PROB30
TEMPO 0106/0108 BKN013
PROB30
TEMPO 0110/0115 4000 SHRA SCT025TCU
BECMG 0113/0115 28010KT
Met : +33 2 31 26 68 11



MET'MAP, your aeronautical weather chart ! - Copyright ORBIFLY December 2007 - Disclaimer

ORBIFLY MET'MAP TEAM :

Programming & Development : Alexandra Zaïnal
Concept & original design : Baudouin d'Aumeries
Assistance for programming : Marc-Olivier Méhu
Technical & hardware support : Manuel Goepfert

Contact : metmap@orbifly.com




SOURCES & CREDITS :

   NOAA